createdAt,value
2023-08-12T00:01:42.088Z,102015.78
2023-08-12T00:04:08.948Z,102006.13
2023-08-12T00:06:35.770Z,102013.03
2023-08-12T00:09:05.020Z,102011.78
2023-08-12T00:11:31.840Z,102025.59
2023-08-12T00:13:58.706Z,102014.50
2023-08-12T00:16:25.922Z,102003.19
2023-08-12T00:18:52.731Z,102014.28
2023-08-12T00:21:19.571Z,102004.84
2023-08-12T00:23:46.508Z,102010.84
2023-08-12T00:26:13.288Z,102008.91
2023-08-12T00:28:40.115Z,102014.63
2023-08-12T00:31:06.926Z,102001.94
2023-08-12T00:33:33.708Z,102009.34
2023-08-12T00:36:00.610Z,102005.75
2023-08-12T00:38:27.400Z,102002.19
2023-08-12T00:40:54.227Z,102007.44
2023-08-12T00:43:21.081Z,102012.56
2023-08-12T00:45:47.926Z,102006.72
2023-08-12T00:48:14.999Z,102010.41
2023-08-12T00:50:41.959Z,102024.13
2023-08-12T00:53:09.225Z,102019.13
2023-08-12T00:55:36.142Z,102012.59
2023-08-12T00:58:03.561Z,102012.50
2023-08-12T01:00:30.398Z,102021.94
2023-08-12T01:02:57.682Z,102004.06
2023-08-12T01:05:24.804Z,102018.03
2023-08-12T01:07:51.660Z,102018.50
2023-08-12T01:10:18.483Z,102017.47
2023-08-12T01:12:59.383Z,102009.81
2023-08-12T01:15:27.375Z,102000.63
2023-08-12T01:17:55.035Z,102003.72
2023-08-12T01:20:26.034Z,102013.75
2023-08-12T01:23:10.440Z,102004.09
2023-08-12T01:25:37.258Z,102007.31
2023-08-12T01:28:04.598Z,102006.84
2023-08-12T01:30:31.570Z,102002.66
2023-08-12T01:33:12.459Z,102003.72
2023-08-12T01:35:48.554Z,101998.97
2023-08-12T01:38:15.350Z,101997.28
2023-08-12T01:40:42.212Z,101979.75
2023-08-12T01:43:09.453Z,102001.72
2023-08-12T01:45:36.618Z,101991.81
2023-08-12T01:48:04.235Z,102000.78
2023-08-12T01:50:31.435Z,101992.66
2023-08-12T01:52:59.132Z,102002.66
2023-08-12T01:55:26.746Z,101998.25
2023-08-12T01:57:53.584Z,102002.31
2023-08-12T02:00:20.349Z,101996.34
2023-08-12T02:02:47.942Z,102004.81
2023-08-12T02:05:15.954Z,102001.47
2023-08-12T02:07:42.869Z,102001.84
2023-08-12T02:10:10.128Z,101991.94
2023-08-12T02:12:37.000Z,101999.31
2023-08-12T02:15:03.964Z,101991.94
2023-08-12T02:17:30.837Z,101994.19
2023-08-12T02:19:57.739Z,101981.56
2023-08-12T02:22:24.636Z,101998.63
2023-08-12T02:24:51.570Z,101986.81
2023-08-12T02:27:18.375Z,101969.88
2023-08-12T02:29:45.172Z,101982.75
2023-08-12T02:32:11.996Z,101994.09
2023-08-12T02:34:38.787Z,101984.06
2023-08-12T02:37:05.573Z,101994.09
2023-08-12T02:39:32.327Z,101992.56
2023-08-12T02:41:59.123Z,101996.34
2023-08-12T02:44:25.993Z,101989.66
2023-08-12T02:46:52.909Z,101992.78
2023-08-12T02:49:19.789Z,101993.72
2023-08-12T02:51:46.633Z,101987.03
2023-08-12T02:54:13.482Z,101988.25
2023-08-12T02:56:41.176Z,101987.28
2023-08-12T02:59:08.013Z,101996.47
2023-08-12T03:01:34.873Z,101977.88
2023-08-12T03:04:01.663Z,101980.97
2023-08-12T03:06:28.504Z,101949.81
2023-08-12T03:08:55.404Z,101982.75
2023-08-12T03:11:22.269Z,101971.78
2023-08-12T03:13:49.064Z,101976.19
2023-08-12T03:16:15.985Z,101979.31
2023-08-12T03:18:42.845Z,101988.38
2023-08-12T03:21:10.074Z,101996.59
2023-08-12T03:23:37.141Z,101993.84
2023-08-12T03:26:04.334Z,101990.63
2023-08-12T03:28:31.889Z,101983.56
2023-08-12T03:30:58.745Z,101980.13
2023-08-12T03:33:25.673Z,101995.41
2023-08-12T03:35:52.537Z,101974.63
2023-08-12T03:38:19.329Z,101972.94
2023-08-12T03:40:46.125Z,101989.25
2023-08-12T03:43:13.001Z,101979.59
2023-08-12T03:45:43.685Z,102004.63
2023-08-12T03:48:10.851Z,101993.97
2023-08-12T03:50:40.900Z,101971.88
2023-08-12T03:53:07.828Z,101984.59
2023-08-12T03:55:34.830Z,101985.53
2023-08-12T03:58:01.781Z,102014.47
2023-08-12T04:00:28.821Z,102001.91
2023-08-12T04:02:55.766Z,101997.47
2023-08-12T04:05:22.637Z,101991.25
2023-08-12T04:07:49.503Z,102000.72
2023-08-12T04:10:16.404Z,102000.41
2023-08-12T04:12:43.764Z,101998.84
2023-08-12T04:15:10.734Z,101985.19
2023-08-12T04:17:37.654Z,101980.75
2023-08-12T04:20:07.688Z,101993.88
2023-08-12T04:22:35.357Z,101979.38
2023-08-12T04:25:03.028Z,101981.38
2023-08-12T04:27:29.851Z,101977.47
2023-08-12T04:29:56.661Z,101973.66
2023-08-12T04:32:23.674Z,101985.53
2023-08-12T04:34:50.566Z,101976.31
2023-08-12T04:37:17.411Z,101954.00
2023-08-12T04:39:44.285Z,101971.41
2023-08-12T04:42:11.106Z,101949.16
2023-08-12T04:44:37.932Z,101951.69
2023-08-12T04:47:04.908Z,101927.47
2023-08-12T04:49:31.847Z,101947.88
2023-08-12T04:51:59.792Z,101945.47
2023-08-12T04:54:26.627Z,101932.03
2023-08-12T04:56:53.506Z,101944.78
2023-08-12T04:59:20.448Z,101931.97
2023-08-12T05:02:02.276Z,101932.06
2023-08-12T05:04:30.765Z,101927.13
2023-08-12T05:06:57.719Z,101938.50
2023-08-12T05:09:24.535Z,101920.50
2023-08-12T05:11:51.385Z,101939.41
2023-08-12T05:14:18.231Z,101933.47
2023-08-12T05:16:45.054Z,101926.50
2023-08-12T05:19:11.957Z,101940.09
2023-08-12T05:21:38.754Z,101932.13
2023-08-12T05:24:06.668Z,101933.16
2023-08-12T05:26:34.885Z,101926.34
2023-08-12T05:29:01.729Z,101923.78
2023-08-12T05:31:28.642Z,101929.59
2023-08-12T05:33:55.570Z,101934.91
2023-08-12T05:36:22.426Z,101938.69
2023-08-12T05:38:49.232Z,101933.09
2023-08-12T05:41:16.147Z,101931.91
2023-08-12T05:43:44.925Z,101929.69
2023-08-12T05:46:11.990Z,101925.72
2023-08-12T05:48:38.845Z,101930.28
2023-08-12T05:51:05.646Z,101919.81
2023-08-12T05:53:33.290Z,101924.91
2023-08-12T05:56:00.258Z,101921.94
2023-08-12T05:58:27.082Z,101901.13
2023-08-12T06:00:53.860Z,101917.84
2023-08-12T06:03:20.725Z,101921.94
2023-08-12T06:05:47.917Z,101907.91
2023-08-12T06:08:15.171Z,101914.56
2023-08-12T06:10:41.974Z,101910.94
2023-08-12T06:13:08.856Z,101905.72
2023-08-12T06:15:35.699Z,101905.84
2023-08-12T06:18:03.029Z,101902.84
2023-08-12T06:20:30.043Z,101892.19
2023-08-12T06:22:56.860Z,101885.38
2023-08-12T06:25:23.675Z,101896.88
2023-08-12T06:27:50.475Z,101891.00
2023-08-12T06:30:17.257Z,101894.81
2023-08-12T06:32:44.047Z,101886.72
2023-08-12T06:35:10.928Z,101874.97
2023-08-12T06:37:37.794Z,101874.13
2023-08-12T06:40:05.169Z,101869.94
2023-08-12T06:42:32.106Z,101878.69
2023-08-12T06:44:59.638Z,101877.81
2023-08-12T06:47:28.396Z,101864.75
2023-08-12T06:49:55.665Z,101863.81
2023-08-12T06:52:22.488Z,101878.88
2023-08-12T06:54:49.375Z,101873.03
2023-08-12T06:57:16.144Z,101865.41
2023-08-12T06:59:43.002Z,101867.31
2023-08-12T07:02:10.118Z,101859.41
2023-08-12T07:04:37.385Z,101865.72
2023-08-12T07:07:04.299Z,101855.53
2023-08-12T07:09:31.137Z,101861.19
2023-08-12T07:11:58.100Z,101869.34
2023-08-12T07:14:24.901Z,101857.16
2023-08-12T07:16:51.720Z,101860.94
2023-08-12T07:19:18.480Z,101852.09
2023-08-12T07:21:45.352Z,101866.22
2023-08-12T07:24:12.165Z,101860.34
2023-08-12T07:26:38.958Z,101852.59
2023-08-12T07:29:05.979Z,101849.34
2023-08-12T07:31:32.806Z,101856.75
2023-08-12T07:33:59.588Z,101853.03
2023-08-12T07:36:26.375Z,101858.75
2023-08-12T07:38:53.131Z,101862.47
2023-08-12T07:41:19.897Z,101872.19
2023-08-12T07:43:46.715Z,101856.56
2023-08-12T07:46:13.532Z,101861.75
2023-08-12T07:48:40.334Z,101863.25
2023-08-12T07:51:07.137Z,101859.31
2023-08-12T07:53:34.005Z,101850.00
2023-08-12T07:56:00.773Z,101847.31
2023-08-12T07:58:27.614Z,101849.72
2023-08-12T08:00:55.264Z,101847.53
2023-08-12T08:03:22.161Z,101847.69
2023-08-12T08:05:49.271Z,101844.50
2023-08-12T08:08:16.221Z,101842.94
2023-08-12T08:10:43.057Z,101844.25
2023-08-12T08:13:09.845Z,101844.28
2023-08-12T08:15:36.617Z,101838.38
2023-08-12T08:18:05.597Z,101842.25
2023-08-12T08:20:33.114Z,101840.63
2023-08-12T08:22:59.918Z,101846.84
2023-08-12T08:25:26.829Z,101838.88
2023-08-12T08:27:54.295Z,101841.66
2023-08-12T08:30:21.112Z,101824.47
2023-08-12T08:32:48.072Z,101832.53
2023-08-12T08:35:15.268Z,101836.38
2023-08-12T08:37:42.376Z,101825.53
2023-08-12T08:40:09.853Z,101835.16
2023-08-12T08:42:36.625Z,101829.13
2023-08-12T08:45:03.591Z,101824.31
2023-08-12T08:47:30.659Z,101820.25
2023-08-12T08:49:58.076Z,101826.66
2023-08-12T08:52:24.984Z,101833.22
2023-08-12T08:54:53.431Z,101823.19
2023-08-12T08:57:22.896Z,101827.00
2023-08-12T08:59:57.900Z,101818.03
2023-08-12T09:02:25.255Z,101810.38
2023-08-12T09:04:52.052Z,101815.06
2023-08-12T09:07:19.520Z,101815.00
2023-08-12T09:09:49.599Z,101820.44
2023-08-12T09:12:17.286Z,101803.00
2023-08-12T09:14:44.240Z,101808.97
2023-08-12T09:17:11.181Z,101800.13
2023-08-12T09:19:38.185Z,101785.34
2023-08-12T09:22:06.536Z,101806.00
2023-08-12T09:24:33.368Z,101801.22
2023-08-12T09:27:00.128Z,101804.16
2023-08-12T09:29:36.972Z,101801.97
2023-08-12T09:32:11.489Z,101796.34
2023-08-12T09:34:38.807Z,101786.38
2023-08-12T09:37:05.604Z,101787.66
2023-08-12T09:39:32.562Z,101779.44
2023-08-12T09:42:00.653Z,101769.63
2023-08-12T09:44:27.443Z,101776.38
2023-08-12T09:47:00.370Z,101772.44
2023-08-12T09:49:27.249Z,101771.34
2023-08-12T09:51:54.209Z,101766.88
2023-08-12T09:54:20.987Z,101769.00
2023-08-12T09:56:49.369Z,101763.44
2023-08-12T09:59:20.394Z,101766.38
2023-08-12T10:01:47.592Z,101765.50
2023-08-12T10:04:14.521Z,101757.91
2023-08-12T10:06:41.806Z,101763.03
2023-08-12T10:09:12.313Z,101763.25
2023-08-12T10:11:39.189Z,101756.75
2023-08-12T10:14:05.988Z,101754.66
2023-08-12T10:16:32.786Z,101755.06
2023-08-12T10:19:00.365Z,101752.97
2023-08-12T10:21:27.250Z,101754.91
2023-08-12T10:23:54.712Z,101754.06
2023-08-12T10:26:21.452Z,101759.72
2023-08-12T10:28:50.112Z,101752.88
2023-08-12T10:31:19.575Z,101751.88
2023-08-12T10:33:49.569Z,101761.59
2023-08-12T10:36:16.677Z,101752.91
2023-08-12T10:38:44.971Z,101756.19
2023-08-12T10:41:21.920Z,101753.59
2023-08-12T10:44:04.007Z,101741.63
2023-08-12T10:46:37.364Z,101741.16
2023-08-12T10:49:10.546Z,101732.63
2023-08-12T10:51:55.002Z,101734.03
2023-08-12T10:54:28.476Z,101722.94
2023-08-12T10:57:09.237Z,101727.88
2023-08-12T10:59:51.784Z,101725.63
2023-08-12T11:02:28.689Z,101716.00
2023-08-12T11:04:57.150Z,101706.00
2023-08-12T11:07:30.390Z,101705.25
2023-08-12T11:10:01.111Z,101703.47
2023-08-12T11:12:53.860Z,101703.81
2023-08-12T11:15:30.334Z,101704.75
2023-08-12T11:17:57.234Z,101707.00
2023-08-12T11:20:24.128Z,101691.28
2023-08-12T11:22:50.935Z,101696.94
2023-08-12T11:25:19.207Z,101692.09
2023-08-12T11:27:48.453Z,101690.66
2023-08-12T11:30:16.734Z,101687.91
2023-08-12T11:32:47.909Z,101672.34
2023-08-12T11:35:24.469Z,101674.13
2023-08-12T11:37:54.226Z,101681.69
2023-08-12T11:40:21.183Z,101674.28
2023-08-12T11:42:48.788Z,101681.59
2023-08-12T11:45:18.356Z,101672.25
2023-08-12T11:47:45.926Z,101673.91
2023-08-12T11:50:13.248Z,101672.38
2023-08-12T11:52:40.519Z,101661.47
2023-08-12T11:55:07.948Z,101649.56
2023-08-12T11:57:38.344Z,101660.47
2023-08-12T12:00:19.016Z,101658.94
2023-08-12T12:02:52.945Z,101652.41
2023-08-12T12:05:28.824Z,101653.91
2023-08-12T12:07:55.671Z,101646.72
2023-08-12T12:10:33.386Z,101639.53
2023-08-12T12:13:02.097Z,101648.13
2023-08-12T12:15:28.978Z,101631.22
2023-08-12T12:17:55.939Z,101637.03
2023-08-12T12:20:23.002Z,101634.13
2023-08-12T12:22:50.155Z,101634.97
2023-08-12T12:25:20.483Z,101636.25
2023-08-12T12:27:47.963Z,101634.25
2023-08-12T12:30:15.555Z,101639.16
2023-08-12T12:32:42.485Z,101635.06
2023-08-12T12:35:09.567Z,101622.88
2023-08-12T12:37:37.305Z,101623.09
2023-08-12T12:40:06.487Z,101619.88
2023-08-12T12:42:33.634Z,101618.88
2023-08-12T12:45:00.652Z,101622.88
2023-08-12T12:47:27.914Z,101633.06
2023-08-12T12:49:54.780Z,101621.25
2023-08-12T12:52:21.605Z,101613.22
2023-08-12T12:54:48.426Z,101599.84
2023-08-12T12:57:15.266Z,101604.16
2023-08-12T12:59:42.034Z,101604.66
2023-08-12T13:02:09.037Z,101612.09
2023-08-12T13:04:35.913Z,101594.81
2023-08-12T13:07:02.745Z,101583.25
2023-08-12T13:09:29.551Z,101591.66
2023-08-12T13:11:58.287Z,101588.22
2023-08-12T13:14:25.468Z,101591.94
2023-08-12T13:16:52.368Z,101590.59
2023-08-12T13:19:19.160Z,101588.66
2023-08-12T13:21:46.013Z,101586.06
2023-08-12T13:24:13.222Z,101581.56
2023-08-12T13:26:39.999Z,101582.38
2023-08-12T13:29:06.814Z,101576.25
2023-08-12T13:31:34.497Z,101581.19
2023-08-12T13:34:01.436Z,101579.41
2023-08-12T13:36:28.277Z,101579.84
2023-08-12T13:38:55.125Z,101579.91
2023-08-12T13:41:22.031Z,101576.72
2023-08-12T13:43:48.897Z,101567.88
2023-08-12T13:46:15.848Z,101573.41
2023-08-12T13:48:43.309Z,101567.56
2023-08-12T13:51:10.398Z,101566.56
2023-08-12T13:53:37.343Z,101570.97
2023-08-12T13:56:04.362Z,101563.09
2023-08-12T13:58:31.156Z,101558.53
2023-08-12T14:00:58.588Z,101546.16
2023-08-12T14:03:25.372Z,101551.19
2023-08-12T14:05:52.299Z,101543.66
2023-08-12T14:08:19.203Z,101545.34
2023-08-12T14:10:47.985Z,101550.06
2023-08-12T14:13:14.847Z,101531.34
2023-08-12T14:15:41.930Z,101537.38
2023-08-12T14:18:09.420Z,101522.38
2023-08-12T14:20:36.440Z,101522.50
2023-08-12T14:23:03.266Z,101530.72
2023-08-12T14:25:30.088Z,101527.09
2023-08-12T14:27:56.874Z,101526.84
2023-08-12T14:30:27.068Z,101534.13
2023-08-12T14:32:54.533Z,101519.53
2023-08-12T14:35:21.552Z,101522.19
2023-08-12T14:37:48.535Z,101515.69
2023-08-12T14:40:15.390Z,101513.59
2023-08-12T14:42:42.165Z,101503.28
2023-08-12T14:45:10.143Z,101492.41
2023-08-12T14:47:37.024Z,101488.97
2023-08-12T14:50:05.432Z,101489.25
2023-08-12T14:52:32.408Z,101499.28
2023-08-12T14:54:59.244Z,101494.09
2023-08-12T14:57:26.005Z,101491.63
2023-08-12T14:59:52.977Z,101497.06
2023-08-12T15:02:25.697Z,101497.97
2023-08-12T15:04:52.765Z,101492.94
2023-08-12T15:07:20.116Z,101500.94
2023-08-12T15:09:47.351Z,101493.69
2023-08-12T15:12:14.183Z,101490.47
2023-08-12T15:14:40.988Z,101487.19
2023-08-12T15:17:07.900Z,101491.72
2023-08-12T15:19:34.816Z,101491.97
2023-08-12T15:22:01.658Z,101491.84
2023-08-12T15:24:28.508Z,101497.63
2023-08-12T15:26:55.418Z,101483.16
2023-08-12T15:29:22.269Z,101492.25
2023-08-12T15:31:49.135Z,101484.09
2023-08-12T15:34:15.913Z,101491.69
2023-08-12T15:36:43.128Z,101482.13
2023-08-12T15:39:09.997Z,101477.31
2023-08-12T15:41:42.943Z,101480.06
2023-08-12T15:44:11.043Z,101480.41
2023-08-12T15:46:38.481Z,101469.66
2023-08-12T15:49:11.940Z,101483.00
2023-08-12T15:51:39.689Z,101487.56
2023-08-12T15:54:07.171Z,101477.59
2023-08-12T15:56:37.040Z,101485.66
2023-08-12T15:59:07.193Z,101477.00
2023-08-12T16:01:34.372Z,101472.72
2023-08-12T16:04:01.266Z,101474.09
2023-08-12T16:06:28.120Z,101464.59
2023-08-12T16:09:15.110Z,101461.28
2023-08-12T16:11:41.537Z,101469.34
2023-08-12T16:14:08.308Z,101467.28
2023-08-12T16:16:35.095Z,101465.88
2023-08-12T16:19:02.307Z,101465.56
2023-08-12T16:21:29.098Z,101465.56
2023-08-12T16:23:55.900Z,101467.25
2023-08-12T16:26:22.684Z,101461.81
2023-08-12T16:28:49.468Z,101468.22
2023-08-12T16:31:16.318Z,101469.59
2023-08-12T16:33:43.091Z,101469.50
2023-08-12T16:36:09.887Z,101475.53
2023-08-12T16:38:36.697Z,101466.78
2023-08-12T16:41:04.820Z,101465.41
2023-08-12T16:43:31.636Z,101457.81
2023-08-12T16:45:58.795Z,101455.75
2023-08-12T16:48:25.726Z,101450.38
2023-08-12T16:50:52.515Z,101459.81
2023-08-12T16:53:19.294Z,101449.13
2023-08-12T16:55:46.060Z,101442.28
2023-08-12T16:58:13.060Z,101444.09
2023-08-12T17:00:39.865Z,101436.69
2023-08-12T17:03:06.767Z,101450.47
2023-08-12T17:05:33.581Z,101446.19
2023-08-12T17:08:00.410Z,101444.97
2023-08-12T17:10:27.473Z,101446.72
2023-08-12T17:12:55.446Z,101443.44
2023-08-12T17:15:22.376Z,101443.28
2023-08-12T17:17:49.221Z,101436.78
2023-08-12T17:20:16.075Z,101442.00
2023-08-12T17:22:42.847Z,101438.75
2023-08-12T17:25:10.158Z,101438.00
2023-08-12T17:27:36.973Z,101440.06
2023-08-12T17:30:04.286Z,101444.03
2023-08-12T17:32:31.132Z,101445.06
2023-08-12T17:34:58.342Z,101441.78
2023-08-12T17:37:25.239Z,101453.47
2023-08-12T17:39:52.181Z,101443.41
2023-08-12T17:42:20.228Z,101445.44
2023-08-12T17:44:47.046Z,101445.41
2023-08-12T17:47:13.959Z,101449.91
2023-08-12T17:49:40.836Z,101452.53
2023-08-12T17:52:07.621Z,101448.00
2023-08-12T17:54:34.424Z,101451.47
2023-08-12T17:57:01.238Z,101449.13
2023-08-12T17:59:28.033Z,101444.38
2023-08-12T18:01:54.890Z,101444.34
2023-08-12T18:04:21.696Z,101443.09
2023-08-12T18:06:48.489Z,101433.81
2023-08-12T18:09:16.602Z,101435.59
2023-08-12T18:11:43.445Z,101439.03
2023-08-12T18:14:10.218Z,101433.22
2023-08-12T18:16:37.072Z,101429.66
2023-08-12T18:19:04.077Z,101429.41
2023-08-12T18:21:30.894Z,101443.47
2023-08-12T18:23:57.735Z,101434.78
2023-08-12T18:26:24.565Z,101441.66
2023-08-12T18:28:51.353Z,101454.75
2023-08-12T18:31:18.176Z,101452.56
2023-08-12T18:33:44.937Z,101457.00
2023-08-12T18:36:11.735Z,101458.78
2023-08-12T18:38:38.530Z,101468.97
2023-08-12T18:41:05.309Z,101465.19
2023-08-12T18:43:32.089Z,101466.94
2023-08-12T18:45:58.992Z,101470.13
2023-08-12T18:48:26.094Z,101465.94
2023-08-12T18:50:52.892Z,101462.38
2023-08-12T18:53:19.696Z,101466.00
2023-08-12T18:55:46.569Z,101449.72
2023-08-12T18:58:13.393Z,101458.97
2023-08-12T19:00:40.382Z,101453.88
2023-08-12T19:03:07.318Z,101456.69
2023-08-12T19:05:34.228Z,101456.25
2023-08-12T19:08:03.210Z,101450.66
2023-08-12T19:10:30.153Z,101447.34
2023-08-12T19:12:57.008Z,101449.56
2023-08-12T19:15:23.886Z,101438.66
2023-08-12T19:17:50.767Z,101447.47
2023-08-12T19:20:17.628Z,101450.78
2023-08-12T19:22:44.700Z,101446.66
2023-08-12T19:25:11.565Z,101444.00
2023-08-12T19:27:38.397Z,101436.00
2023-08-12T19:30:05.700Z,101438.47
2023-08-12T19:32:32.566Z,101433.53
2023-08-12T19:34:59.386Z,101430.88
2023-08-12T19:37:26.280Z,101431.06
2023-08-12T19:39:53.050Z,101445.72
2023-08-12T19:42:19.879Z,101443.91
2023-08-12T19:44:46.641Z,101436.75
2023-08-12T19:47:13.429Z,101440.78
2023-08-12T19:49:40.212Z,101439.59
2023-08-12T19:52:07.123Z,101436.28
2023-08-12T19:54:33.907Z,101437.47
2023-08-12T19:57:00.715Z,101442.78
2023-08-12T19:59:29.655Z,101449.13
2023-08-12T20:01:57.194Z,101448.31
2023-08-12T20:04:24.649Z,101439.69
2023-08-12T20:06:51.717Z,101439.22
2023-08-12T20:09:19.098Z,101427.50
2023-08-12T20:11:45.889Z,101440.78
2023-08-12T20:14:12.629Z,101444.91
2023-08-12T20:16:39.427Z,101445.28
2023-08-12T20:19:07.960Z,101439.31
2023-08-12T20:21:34.730Z,101446.28
2023-08-12T20:24:01.459Z,101448.13
2023-08-12T20:26:28.240Z,101441.31
2023-08-12T20:28:55.020Z,101445.00
2023-08-12T20:31:23.899Z,101450.03
2023-08-12T20:33:50.822Z,101438.59
2023-08-12T20:36:20.366Z,101438.22
2023-08-12T20:38:47.539Z,101438.41
2023-08-12T20:41:14.356Z,101426.88
2023-08-12T20:43:41.199Z,101427.69
2023-08-12T20:46:08.007Z,101433.81
2023-08-12T20:48:34.945Z,101427.97
2023-08-12T20:51:01.844Z,101431.63
2023-08-12T20:53:32.465Z,101423.09
2023-08-12T20:55:59.590Z,101422.72
2023-08-12T20:58:26.416Z,101428.69
2023-08-12T21:00:53.188Z,101432.34
2023-08-12T21:03:21.219Z,101425.22
2023-08-12T21:05:54.234Z,101432.81
2023-08-12T21:08:21.035Z,101429.97
2023-08-12T21:10:54.464Z,101426.50
2023-08-12T21:13:21.906Z,101431.00
2023-08-12T21:15:48.768Z,101427.97
2023-08-12T21:18:15.578Z,101419.25
2023-08-12T21:20:42.358Z,101416.78
2023-08-12T21:23:09.242Z,101420.44
2023-08-12T21:25:36.105Z,101415.19
2023-08-12T21:28:02.970Z,101414.38
2023-08-12T21:30:29.893Z,101412.06
2023-08-12T21:32:56.906Z,101416.22
2023-08-12T21:35:23.937Z,101414.53
2023-08-12T21:37:50.723Z,101413.91
2023-08-12T21:40:17.556Z,101408.69
2023-08-12T21:42:44.321Z,101413.81
2023-08-12T21:45:11.729Z,101415.66
2023-08-12T21:47:38.488Z,101418.28
2023-08-12T21:50:06.311Z,101419.13
2023-08-12T21:52:33.073Z,101419.13
2023-08-12T21:54:59.871Z,101414.81
2023-08-12T21:57:26.662Z,101419.13
2023-08-12T21:59:53.510Z,101407.84
2023-08-12T22:02:26.966Z,101409.22
2023-08-12T22:04:54.012Z,101398.84
2023-08-12T22:07:21.045Z,101412.03
2023-08-12T22:09:47.835Z,101402.72
2023-08-12T22:12:14.826Z,101407.75
2023-08-12T22:14:41.993Z,101414.47
2023-08-12T22:17:08.800Z,101415.44
2023-08-12T22:19:35.612Z,101400.63
2023-08-12T22:22:13.257Z,101409.09
2023-08-12T22:24:46.311Z,101404.38
2023-08-12T22:27:13.173Z,101402.94
2023-08-12T22:29:40.009Z,101408.94
2023-08-12T22:32:06.886Z,101410.75
2023-08-12T22:34:33.705Z,101423.47
2023-08-12T22:37:00.490Z,101414.88
2023-08-12T22:39:27.271Z,101432.44
2023-08-12T22:41:54.037Z,101422.34
2023-08-12T22:44:20.800Z,101420.69
2023-08-12T22:46:47.611Z,101413.91
2023-08-12T22:49:15.287Z,101416.53
2023-08-12T22:51:42.054Z,101399.31
2023-08-12T22:54:09.481Z,101395.84
2023-08-12T22:56:38.683Z,101401.22
2023-08-12T22:59:05.558Z,101398.78
2023-08-12T23:01:32.393Z,101406.19
2023-08-12T23:03:59.161Z,101395.25
2023-08-12T23:06:26.030Z,101394.75
2023-08-12T23:08:52.971Z,101391.72
2023-08-12T23:11:19.776Z,101393.06
2023-08-12T23:13:46.700Z,101387.28
2023-08-12T23:16:13.590Z,101390.88
2023-08-12T23:18:40.378Z,101381.72
2023-08-12T23:21:07.161Z,101391.81
2023-08-12T23:23:33.934Z,101393.47
2023-08-12T23:26:00.700Z,101392.81
2023-08-12T23:28:27.566Z,101385.84
2023-08-12T23:30:54.414Z,101392.13
2023-08-12T23:33:21.231Z,101388.97
2023-08-12T23:35:48.057Z,101386.00
2023-08-12T23:38:14.873Z,101384.84
2023-08-12T23:40:41.634Z,101379.69
2023-08-12T23:43:08.387Z,101383.66
2023-08-12T23:45:39.077Z,101367.75
2023-08-12T23:48:06.144Z,101380.28
2023-08-12T23:50:33.012Z,101388.44
2023-08-12T23:52:59.879Z,101396.41
2023-08-12T23:55:26.753Z,101383.97
2023-08-12T23:57:53.547Z,101378.13
